createdAt,value
2022-11-15T00:01:18.159Z,99141.59
2022-11-15T00:03:46.062Z,99142.78
2022-11-15T00:06:13.716Z,99140.09
2022-11-15T00:08:40.636Z,99132.41
2022-11-15T00:11:07.536Z,99126.16
2022-11-15T00:13:35.005Z,99121.59
2022-11-15T00:16:02.753Z,99116.63
2022-11-15T00:18:30.859Z,99112.09
2022-11-15T00:21:04.990Z,99105.63
2022-11-15T00:23:31.992Z,99106.69
2022-11-15T00:25:59.983Z,99096.34
2022-11-15T00:28:27.839Z,99097.16
2022-11-15T00:30:54.763Z,99080.97
2022-11-15T00:33:21.634Z,99084.28
2022-11-15T00:35:48.516Z,99078.25
2022-11-15T00:38:15.662Z,99070.97
2022-11-15T00:40:42.622Z,99070.59
2022-11-15T00:43:09.441Z,99079.81
2022-11-15T00:45:36.397Z,99064.44
2022-11-15T00:48:03.302Z,99053.81
2022-11-15T00:50:30.298Z,99049.50
2022-11-15T00:52:57.311Z,99039.13
2022-11-15T00:55:24.072Z,99037.06
2022-11-15T00:57:50.862Z,99039.13
2022-11-15T01:00:18.033Z,99030.22
2022-11-15T01:02:44.840Z,99025.91
2022-11-15T01:05:11.980Z,99014.28
2022-11-15T01:07:38.746Z,99020.50
2022-11-15T01:10:06.770Z,99010.53
2022-11-15T01:12:34.179Z,98999.94
2022-11-15T01:15:01.203Z,98995.41
2022-11-15T01:17:28.303Z,98996.00
2022-11-15T01:19:55.071Z,98999.31
2022-11-15T01:22:21.998Z,98994.34
2022-11-15T01:24:51.862Z,98983.56
2022-11-15T01:27:19.184Z,98977.94
2022-11-15T01:29:46.007Z,98976.06
2022-11-15T01:32:12.821Z,98960.72
2022-11-15T01:34:40.100Z,98953.25
2022-11-15T01:37:06.883Z,98942.00
2022-11-15T01:39:33.738Z,98933.28
2022-11-15T01:42:00.558Z,98923.97
2022-11-15T01:44:45.672Z,98923.34
2022-11-15T01:47:29.684Z,98905.03
2022-11-15T01:50:17.585Z,98896.75
2022-11-15T01:52:44.689Z,98891.75
2022-11-15T01:55:21.772Z,98894.66
2022-11-15T01:57:55.003Z,98890.31
2022-11-15T02:00:21.927Z,98880.13
2022-11-15T02:02:48.956Z,98877.84
2022-11-15T02:05:16.454Z,98865.16
2022-11-15T02:07:44.003Z,98858.28
2022-11-15T02:10:21.373Z,98845.84
2022-11-15T02:12:49.647Z,98839.78
2022-11-15T02:15:16.749Z,98828.81
2022-11-15T02:18:04.728Z,98818.19
2022-11-15T02:21:08.233Z,98816.09
2022-11-15T02:24:01.193Z,98815.06
2022-11-15T02:27:08.151Z,98802.78
2022-11-15T02:30:17.879Z,98794.28
2022-11-15T02:33:03.841Z,98800.09
2022-11-15T02:35:53.755Z,98790.72
2022-11-15T02:39:14.893Z,98793.88
2022-11-15T02:41:55.920Z,98790.72
2022-11-15T02:44:34.874Z,98774.94
2022-11-15T02:47:15.989Z,98774.09
2022-11-15T02:49:47.708Z,98769.97
2022-11-15T02:52:21.159Z,98764.13
2022-11-15T02:55:00.400Z,98756.66
2022-11-15T02:57:53.169Z,98749.97
2022-11-15T03:00:21.621Z,98749.16
2022-11-15T03:03:06.287Z,98737.53
2022-11-15T03:05:42.788Z,98729.81
2022-11-15T03:08:20.563Z,98725.06
2022-11-15T03:11:09.237Z,98720.47
2022-11-15T03:14:00.142Z,98715.09
2022-11-15T03:16:38.889Z,98705.53
2022-11-15T03:19:24.991Z,98711.97
2022-11-15T03:21:53.816Z,98706.78
2022-11-15T03:24:25.817Z,98697.59
2022-11-15T03:26:57.299Z,98693.88
2022-11-15T03:29:30.963Z,98686.78
2022-11-15T03:32:15.515Z,98687.63
2022-11-15T03:35:04.353Z,98671.00
2022-11-15T03:37:51.642Z,98671.59
2022-11-15T03:40:23.892Z,98663.50
2022-11-15T03:43:05.746Z,98659.94
2022-11-15T03:45:41.952Z,98652.84
2022-11-15T03:48:16.233Z,98649.13
2022-11-15T03:50:44.752Z,98647.28
2022-11-15T03:53:12.352Z,98652.66
2022-11-15T03:55:39.221Z,98649.75
2022-11-15T03:58:06.177Z,98653.06
2022-11-15T04:00:33.319Z,98643.06
2022-11-15T04:03:00.200Z,98627.69
2022-11-15T04:05:27.192Z,98624.53
2022-11-15T04:07:54.034Z,98616.03
2022-11-15T04:10:21.140Z,98612.69
2022-11-15T04:12:48.812Z,98599.78
2022-11-15T04:15:21.522Z,98598.13
2022-11-15T04:17:52.371Z,98589.16
2022-11-15T04:20:41.602Z,98590.19
2022-11-15T04:23:31.790Z,98584.41
2022-11-15T04:26:03.187Z,98574.59
2022-11-15T04:28:30.377Z,98575.66
2022-11-15T04:30:57.552Z,98567.75
2022-11-15T04:33:24.658Z,98569.41
2022-11-15T04:36:11.018Z,98565.00
2022-11-15T04:38:38.208Z,98557.72
2022-11-15T04:41:05.421Z,98557.53
2022-11-15T04:43:32.596Z,98554.19
2022-11-15T04:45:59.642Z,98549.38
2022-11-15T04:48:26.860Z,98550.03
2022-11-15T04:50:53.675Z,98540.66
2022-11-15T04:53:20.483Z,98535.84
2022-11-15T04:55:47.490Z,98535.25
2022-11-15T04:58:14.475Z,98532.13
2022-11-15T05:00:41.462Z,98519.41
2022-11-15T05:03:29.653Z,98516.72
2022-11-15T05:05:56.747Z,98516.72
2022-11-15T05:08:23.506Z,98509.06
2022-11-15T05:10:50.665Z,98497.41
2022-11-15T05:13:18.156Z,98487.63
2022-11-15T05:15:45.414Z,98471.59
2022-11-15T05:18:12.831Z,98471.16
2022-11-15T05:20:39.765Z,98468.72
2022-11-15T05:23:06.914Z,98462.84
2022-11-15T05:25:33.761Z,98462.44
2022-11-15T05:28:00.595Z,98457.44
2022-11-15T05:30:27.440Z,98452.66
2022-11-15T05:32:54.893Z,98439.91
2022-11-15T05:35:36.464Z,98446.19
2022-11-15T05:38:04.042Z,98434.88
2022-11-15T05:40:31.952Z,98435.56
2022-11-15T05:43:01.458Z,98433.63
2022-11-15T05:45:28.732Z,98418.44
2022-11-15T05:47:58.769Z,98430.25
2022-11-15T05:50:27.005Z,98415.72
2022-11-15T05:52:56.941Z,98411.09
2022-11-15T05:55:26.478Z,98409.00
2022-11-15T05:57:53.571Z,98411.09
2022-11-15T06:00:20.499Z,98402.16
2022-11-15T06:02:47.248Z,98403.81
2022-11-15T06:05:14.205Z,98394.44
2022-11-15T06:07:41.027Z,98395.66
2022-11-15T06:10:08.922Z,98386.94
2022-11-15T06:12:35.663Z,98391.44
2022-11-15T06:15:02.515Z,98387.31
2022-11-15T06:17:30.673Z,98381.66
2022-11-15T06:19:57.483Z,98373.09
2022-11-15T06:22:24.305Z,98364.75
2022-11-15T06:24:51.220Z,98357.69
2022-11-15T06:27:17.971Z,98363.47
2022-11-15T06:29:44.772Z,98367.25
2022-11-15T06:32:11.657Z,98369.31
2022-11-15T06:34:38.447Z,98356.44
2022-11-15T06:37:05.239Z,98359.75
2022-11-15T06:39:32.001Z,98347.19
2022-11-15T06:41:58.799Z,98336.38
2022-11-15T06:44:25.831Z,98331.34
2022-11-15T06:46:52.655Z,98331.63
2022-11-15T06:49:19.470Z,98336.75
2022-11-15T06:51:46.230Z,98325.44
2022-11-15T06:54:13.320Z,98332.53
2022-11-15T06:56:40.489Z,98317.34
2022-11-15T06:59:10.777Z,98322.16
2022-11-15T07:01:37.774Z,98325.22
2022-11-15T07:04:04.960Z,98317.34
2022-11-15T07:06:31.696Z,98318.09
2022-11-15T07:08:58.552Z,98316.06
2022-11-15T07:11:25.346Z,98307.84
2022-11-15T07:13:52.171Z,98305.16
2022-11-15T07:16:19.337Z,98302.28
2022-11-15T07:18:46.091Z,98294.91
2022-11-15T07:21:13.998Z,98297.63
2022-11-15T07:23:41.474Z,98290.81
2022-11-15T07:26:09.349Z,98292.81
2022-11-15T07:28:36.779Z,98294.09
2022-11-15T07:31:09.678Z,98292.38
2022-11-15T07:33:37.029Z,98282.84
2022-11-15T07:36:06.569Z,98286.34
2022-11-15T07:38:41.000Z,98294.84
2022-11-15T07:41:09.529Z,98287.56
2022-11-15T07:43:36.626Z,98290.03
2022-11-15T07:46:10.648Z,98275.91
2022-11-15T07:48:45.425Z,98276.50
2022-11-15T07:51:24.841Z,98267.09
2022-11-15T07:53:52.082Z,98271.84
2022-11-15T07:56:19.441Z,98260.16
2022-11-15T07:58:47.610Z,98261.81
2022-11-15T08:01:14.812Z,98247.56
2022-11-15T08:03:41.708Z,98249.47
2022-11-15T08:06:08.625Z,98248.44
2022-11-15T08:08:35.419Z,98236.53
2022-11-15T08:11:02.380Z,98237.59
2022-11-15T08:13:29.663Z,98233.81
2022-11-15T08:16:06.628Z,98226.91
2022-11-15T08:18:33.695Z,98217.53
2022-11-15T08:21:02.552Z,98204.19
2022-11-15T08:23:29.970Z,98204.56
2022-11-15T08:26:05.216Z,98199.16
2022-11-15T08:28:33.353Z,98187.84
2022-11-15T08:31:00.247Z,98184.91
2022-11-15T08:33:27.280Z,98180.66
2022-11-15T08:35:58.717Z,98173.13
2022-11-15T08:38:25.531Z,98166.44
2022-11-15T08:40:54.876Z,98165.00
2022-11-15T08:43:21.650Z,98155.59
2022-11-15T08:45:48.406Z,98161.03
2022-11-15T08:48:15.392Z,98155.13
2022-11-15T08:50:42.272Z,98152.31
2022-11-15T08:53:09.895Z,98145.13
2022-11-15T08:55:41.532Z,98136.16
2022-11-15T08:58:08.415Z,98143.00
2022-11-15T09:00:35.272Z,98140.91
2022-11-15T09:03:06.586Z,98126.19
2022-11-15T09:05:34.090Z,98118.63
2022-11-15T09:08:03.984Z,98126.28
2022-11-15T09:10:37.795Z,98116.03
2022-11-15T09:13:04.612Z,98107.66
2022-11-15T09:15:31.452Z,98102.03
2022-11-15T09:18:01.309Z,98096.59
2022-11-15T09:20:28.092Z,98098.25
2022-11-15T09:22:55.396Z,98091.78
2022-11-15T09:25:22.217Z,98100.25
2022-11-15T09:27:49.010Z,98094.00
2022-11-15T09:30:16.270Z,98089.41
2022-11-15T09:32:43.074Z,98083.53
2022-11-15T09:35:10.099Z,98084.34
2022-11-15T09:37:36.926Z,98086.47
2022-11-15T09:40:04.642Z,98079.75
2022-11-15T09:42:50.083Z,98074.69
2022-11-15T09:45:35.453Z,98078.94
2022-11-15T09:48:41.878Z,98076.81
2022-11-15T09:51:20.432Z,98072.56
2022-11-15T09:54:51.008Z,98072.09
2022-11-15T09:56:51.983Z,98059.59
2022-11-15T09:59:56.504Z,98059.13
2022-11-15T10:02:59.889Z,98059.13
2022-11-15T10:05:27.643Z,98056.53
2022-11-15T10:08:24.227Z,98051.56
2022-11-15T10:11:30.593Z,98054.63
2022-11-15T10:13:50.562Z,98043.06
2022-11-15T10:16:29.500Z,98040.94
2022-11-15T10:19:06.108Z,98031.75
2022-11-15T10:22:00.568Z,98040.34
2022-11-15T10:24:30.331Z,98037.06
2022-11-15T10:26:57.760Z,98028.94
2022-11-15T10:29:27.499Z,98034.66
2022-11-15T10:31:54.755Z,98033.84
2022-11-15T10:34:24.493Z,98027.72
2022-11-15T10:37:03.105Z,98025.59
2022-11-15T10:39:30.469Z,98022.38
2022-11-15T10:41:58.095Z,98017.53
2022-11-15T10:44:30.466Z,98016.25
2022-11-15T10:46:57.596Z,98011.88
2022-11-15T10:49:33.964Z,98008.94
2022-11-15T10:52:05.424Z,98007.28
2022-11-15T10:54:41.276Z,98005.16
2022-11-15T10:57:20.839Z,97998.19
2022-11-15T10:59:52.080Z,97996.28
2022-11-15T11:02:40.087Z,98003.38
2022-11-15T11:05:28.491Z,97986.84
2022-11-15T11:08:25.782Z,97991.78
2022-11-15T11:11:03.416Z,97985.88
2022-11-15T11:13:34.598Z,97980.53
2022-11-15T11:16:15.445Z,97982.44
2022-11-15T11:19:38.919Z,97976.19
2022-11-15T11:22:39.820Z,97949.97
2022-11-15T11:25:44.372Z,97934.75
2022-11-15T11:28:31.748Z,97935.59
2022-11-15T11:31:17.593Z,97935.09
2022-11-15T11:34:07.379Z,97930.25
2022-11-15T11:36:53.433Z,97919.72
2022-11-15T11:39:46.306Z,97913.25
2022-11-15T11:42:39.500Z,97928.66
2022-11-15T11:45:15.299Z,97937.41
2022-11-15T11:47:52.980Z,97933.38
2022-11-15T11:50:24.562Z,97919.47
2022-11-15T11:53:10.455Z,97919.81
2022-11-15T11:55:47.141Z,97924.44
2022-11-15T11:58:39.728Z,97914.28
2022-11-15T12:01:25.697Z,97920.28
2022-11-15T12:04:31.951Z,97935.84
2022-11-15T12:07:22.135Z,97962.47
2022-11-15T12:10:24.623Z,97984.13
2022-11-15T12:13:10.450Z,97985.34
2022-11-15T12:15:45.081Z,97977.31
2022-11-15T12:18:16.863Z,97973.09
2022-11-15T12:21:03.851Z,97978.97
2022-11-15T12:23:40.537Z,97977.00
2022-11-15T12:26:18.905Z,97970.28
2022-11-15T12:29:06.926Z,97964.75
2022-11-15T12:31:52.751Z,97955.56
2022-11-15T12:34:22.576Z,97937.66
2022-11-15T12:36:51.688Z,97940.34
2022-11-15T12:39:19.620Z,97944.97
2022-11-15T12:41:58.654Z,97945.31
2022-11-15T12:44:31.561Z,97946.97
2022-11-15T12:46:58.321Z,97956.00
2022-11-15T12:49:25.014Z,97953.97
2022-11-15T12:51:53.344Z,97954.31
2022-11-15T12:54:23.220Z,97955.00
2022-11-15T12:57:05.218Z,97963.47
2022-11-15T12:59:59.719Z,97966.28
2022-11-15T13:02:40.826Z,97961.19
2022-11-15T13:05:16.966Z,97968.72
2022-11-15T13:07:56.208Z,97958.56
2022-11-15T13:10:35.084Z,97959.13
2022-11-15T13:13:04.353Z,97958.75
2022-11-15T13:15:31.220Z,97947.97
2022-11-15T13:17:58.324Z,97942.41
2022-11-15T13:20:33.370Z,97938.88
2022-11-15T13:23:10.601Z,97943.31
2022-11-15T13:25:37.785Z,97936.91
2022-11-15T13:28:17.904Z,97941.75
2022-11-15T13:30:47.718Z,97938.94
2022-11-15T13:33:25.131Z,97934.09
2022-11-15T13:35:56.122Z,97936.91
2022-11-15T13:38:25.777Z,97938.72
2022-11-15T13:40:52.622Z,97941.44
2022-11-15T13:43:22.350Z,97950.25
2022-11-15T13:46:09.081Z,97950.06
2022-11-15T13:48:36.552Z,97955.09
2022-11-15T13:51:17.427Z,97961.09
2022-11-15T13:53:50.275Z,97956.09
2022-11-15T13:56:20.028Z,97965.28
2022-11-15T13:58:47.558Z,97962.00
2022-11-15T14:01:20.800Z,97968.97
2022-11-15T14:03:58.860Z,97976.28
2022-11-15T14:06:28.659Z,97980.50
2022-11-15T14:09:10.702Z,97979.75
2022-11-15T14:11:38.415Z,97985.50
2022-11-15T14:14:14.650Z,97977.69
2022-11-15T14:16:48.063Z,97978.75
2022-11-15T14:19:37.459Z,97981.63
2022-11-15T14:22:27.303Z,97978.00
2022-11-15T14:25:20.122Z,97988.44
2022-11-15T14:28:26.183Z,97995.06
2022-11-15T14:30:56.080Z,97991.31
2022-11-15T14:33:30.547Z,97991.31
2022-11-15T14:35:59.852Z,97989.06
2022-11-15T14:38:27.497Z,97991.78
2022-11-15T14:40:56.886Z,97993.50
2022-11-15T14:43:24.746Z,98004.13
2022-11-15T14:45:51.668Z,97997.47
2022-11-15T14:48:18.459Z,97994.19
2022-11-15T14:50:45.423Z,98001.41
2022-11-15T14:53:21.820Z,97998.88
2022-11-15T14:55:48.993Z,97990.72
2022-11-15T14:58:15.835Z,98003.84
2022-11-15T15:00:43.314Z,97993.75
2022-11-15T15:03:10.754Z,97988.78
2022-11-15T15:05:43.955Z,97986.94
2022-11-15T15:08:12.020Z,97989.19
2022-11-15T15:10:43.074Z,97985.56
2022-11-15T15:13:22.117Z,97978.63
2022-11-15T15:15:50.500Z,97989.13
2022-11-15T15:18:18.574Z,97985.41
2022-11-15T15:21:01.101Z,97983.91
2022-11-15T15:23:30.360Z,97991.31
2022-11-15T15:25:57.326Z,97988.97
2022-11-15T15:28:24.163Z,97992.03
2022-11-15T15:30:51.276Z,97992.19
2022-11-15T15:33:18.247Z,97985.19
2022-11-15T15:35:45.221Z,97987.22
2022-11-15T15:38:16.549Z,97988.13
2022-11-15T15:40:46.369Z,97991.19
2022-11-15T15:43:13.212Z,97989.22
2022-11-15T15:45:42.424Z,97988.72
2022-11-15T15:48:17.747Z,97995.53
2022-11-15T15:50:46.284Z,97999.75
2022-11-15T15:53:14.403Z,97996.31
2022-11-15T15:55:41.617Z,98003.72
2022-11-15T15:58:09.398Z,98006.53
2022-11-15T16:00:37.955Z,98008.50
2022-11-15T16:03:05.160Z,98009.22
2022-11-15T16:05:32.188Z,98009.53
2022-11-15T16:07:59.260Z,98017.50
2022-11-15T16:10:31.180Z,98017.59
2022-11-15T16:12:59.320Z,98022.63
2022-11-15T16:15:28.663Z,98023.06
2022-11-15T16:17:58.386Z,98017.06
2022-11-15T16:20:30.411Z,98019.66
2022-11-15T16:22:57.606Z,98022.22
2022-11-15T16:25:25.140Z,98034.97
2022-11-15T16:27:52.188Z,98032.13
2022-11-15T16:30:22.160Z,98034.69
2022-11-15T16:32:49.261Z,98027.47
2022-11-15T16:35:18.138Z,98024.41
2022-11-15T16:37:47.410Z,98020.75
2022-11-15T16:40:33.611Z,98032.22
2022-11-15T16:43:03.050Z,98041.38
2022-11-15T16:45:30.169Z,98038.28
2022-11-15T16:47:57.591Z,98045.78
2022-11-15T16:50:28.629Z,98040.03
2022-11-15T16:52:58.019Z,98042.34
2022-11-15T16:55:29.638Z,98045.47
2022-11-15T16:58:01.574Z,98049.66
2022-11-15T17:00:29.295Z,98051.78
2022-11-15T17:02:56.728Z,98049.28
2022-11-15T17:05:27.421Z,98040.38
2022-11-15T17:07:54.403Z,98049.88
2022-11-15T17:10:26.792Z,98045.31
2022-11-15T17:12:56.884Z,98036.78
2022-11-15T17:15:24.987Z,98034.69
2022-11-15T17:17:54.124Z,98033.41
2022-11-15T17:20:24.231Z,98036.47
2022-11-15T17:22:52.999Z,98040.84
2022-11-15T17:25:20.478Z,98038.72
2022-11-15T17:27:47.324Z,98027.13
2022-11-15T17:30:15.822Z,98022.31
2022-11-15T17:32:43.856Z,98023.72
2022-11-15T17:35:15.569Z,98033.28
2022-11-15T17:37:43.406Z,98033.03
2022-11-15T17:40:11.009Z,98027.78
2022-11-15T17:42:37.744Z,98034.00
2022-11-15T17:45:09.613Z,98032.75
2022-11-15T17:47:37.428Z,98026.88
2022-11-15T17:50:05.328Z,98025.41
2022-11-15T17:52:32.079Z,98022.44
2022-11-15T17:54:58.835Z,98020.59
2022-11-15T17:57:25.599Z,98011.41
2022-11-15T17:59:52.568Z,98009.53
2022-11-15T18:02:19.816Z,98009.09
2022-11-15T18:04:46.741Z,97994.75
2022-11-15T18:07:14.352Z,97995.59
2022-11-15T18:09:44.245Z,98004.06
2022-11-15T18:12:12.038Z,98005.09
2022-11-15T18:14:39.307Z,98006.75
2022-11-15T18:17:06.180Z,98001.34
2022-11-15T18:19:33.344Z,97997.63
2022-11-15T18:22:01.663Z,97998.44
2022-11-15T18:24:38.608Z,97994.91
2022-11-15T18:27:07.138Z,98003.63
2022-11-15T18:29:38.177Z,98002.56
2022-11-15T18:32:11.781Z,97989.25
2022-11-15T18:34:39.204Z,97990.09
2022-11-15T18:37:06.203Z,97992.34
2022-11-15T18:39:33.304Z,97998.22
2022-11-15T18:42:00.120Z,97998.81
2022-11-15T18:44:30.262Z,97994.44
2022-11-15T18:46:57.508Z,98001.72
2022-11-15T18:49:24.597Z,97999.47
2022-11-15T18:51:51.442Z,97995.94
2022-11-15T18:54:18.448Z,98000.38
2022-11-15T18:56:47.312Z,97991.84
2022-11-15T18:59:15.145Z,97994.28
2022-11-15T19:01:47.798Z,97986.06
2022-11-15T19:04:18.730Z,97974.66
2022-11-15T19:06:49.038Z,97977.38
2022-11-15T19:09:18.449Z,97986.88
2022-11-15T19:11:47.386Z,97985.91
2022-11-15T19:14:17.392Z,97983.22
2022-11-15T19:16:50.539Z,97984.25
2022-11-15T19:19:20.585Z,97994.25
2022-11-15T19:21:48.525Z,97993.03
2022-11-15T19:24:15.968Z,97992.00
2022-11-15T19:26:43.351Z,97992.81
2022-11-15T19:29:10.801Z,97992.44
2022-11-15T19:31:38.655Z,97990.78
2022-11-15T19:34:07.003Z,98001.22
2022-11-15T19:36:45.133Z,98000.88
2022-11-15T19:39:14.427Z,98013.69
2022-11-15T19:41:43.643Z,98002.88
2022-11-15T19:44:12.699Z,98001.84
2022-11-15T19:46:40.322Z,97995.00
2022-11-15T19:49:10.639Z,97988.78
2022-11-15T19:51:39.097Z,97993.59
2022-11-15T19:54:09.015Z,97989.69
2022-11-15T19:56:37.054Z,97987.22
2022-11-15T19:59:05.360Z,97981.44
2022-11-15T20:01:36.482Z,97988.94
2022-11-15T20:04:04.522Z,97994.78
2022-11-15T20:06:35.280Z,97993.13
2022-11-15T20:09:02.525Z,97994.41
2022-11-15T20:11:29.322Z,97995.84
2022-11-15T20:14:02.437Z,97992.75
2022-11-15T20:16:30.223Z,97988.19
2022-11-15T20:18:57.072Z,97993.56
2022-11-15T20:21:24.088Z,97991.47
2022-11-15T20:23:51.943Z,97991.63
2022-11-15T20:26:20.639Z,97991.63
2022-11-15T20:28:48.373Z,97998.06
2022-11-15T20:31:16.995Z,98003.47
2022-11-15T20:33:44.202Z,98005.13
2022-11-15T20:36:16.212Z,98027.34
2022-11-15T20:38:45.154Z,98028.53
2022-11-15T20:41:13.496Z,98038.28
2022-11-15T20:43:43.773Z,98018.72
2022-11-15T20:46:12.692Z,98017.50
2022-11-15T20:48:40.953Z,98017.94
2022-11-15T20:51:16.032Z,98019.91
2022-11-15T20:53:44.848Z,98012.41
2022-11-15T20:56:14.948Z,98018.94
2022-11-15T20:58:43.123Z,98016.59
2022-11-15T21:01:14.340Z,98023.13
2022-11-15T21:03:41.828Z,98019.00
2022-11-15T21:06:08.821Z,98026.28
2022-11-15T21:08:54.643Z,98023.97
2022-11-15T21:11:40.822Z,98026.09
2022-11-15T21:14:09.588Z,98022.78
2022-11-15T21:16:38.060Z,98032.16
2022-11-15T21:19:06.864Z,98028.78
2022-11-15T21:21:35.734Z,98040.19
2022-11-15T21:24:04.822Z,98042.06
2022-11-15T21:26:32.598Z,98044.75
2022-11-15T21:28:59.422Z,98044.97
2022-11-15T21:31:26.400Z,98041.06
2022-11-15T21:33:53.367Z,98045.56
2022-11-15T21:36:20.992Z,98052.63
2022-11-15T21:38:47.834Z,98050.16
2022-11-15T21:41:14.639Z,98054.28
2022-11-15T21:43:41.447Z,98049.94
2022-11-15T21:46:09.241Z,98043.94
2022-11-15T21:48:36.751Z,98039.56
2022-11-15T21:51:10.302Z,98038.59
2022-11-15T21:53:37.371Z,98046.47
2022-11-15T21:56:04.822Z,98045.88
2022-11-15T21:58:32.073Z,98049.59
2022-11-15T22:01:18.251Z,98050.66
2022-11-15T22:03:45.816Z,98047.38
2022-11-15T22:06:17.433Z,98047.41
2022-11-15T22:08:46.108Z,98040.75
2022-11-15T22:11:13.969Z,98039.53
2022-11-15T22:13:41.128Z,98041.03
2022-11-15T22:16:09.248Z,98043.34
2022-11-15T22:18:36.903Z,98041.31
2022-11-15T22:21:07.687Z,98032.38
2022-11-15T22:23:34.855Z,98038.00
2022-11-15T22:26:02.135Z,98031.16
2022-11-15T22:28:30.465Z,98027.88
2022-11-15T22:30:58.852Z,98035.97
2022-11-15T22:33:31.413Z,98031.03
2022-11-15T22:35:59.386Z,98036.78
2022-11-15T22:38:27.463Z,98044.06
2022-11-15T22:40:54.986Z,98045.94
2022-11-15T22:43:24.355Z,98046.75
2022-11-15T22:45:56.446Z,98060.47
2022-11-15T22:48:29.990Z,98051.34
2022-11-15T22:50:57.964Z,98051.75
2022-11-15T22:53:25.493Z,98042.84
2022-11-15T22:55:59.157Z,98049.72
2022-11-15T22:58:28.926Z,98048.91
2022-11-15T23:01:00.964Z,98053.84
2022-11-15T23:03:29.168Z,98040.97
2022-11-15T23:06:01.542Z,98043.06
2022-11-15T23:08:28.378Z,98036.63
2022-11-15T23:11:14.182Z,98039.56
2022-11-15T23:13:41.013Z,98046.81
2022-11-15T23:16:29.062Z,98046.38
2022-11-15T23:19:01.163Z,98050.94
2022-11-15T23:21:55.310Z,98048.03
2022-11-15T23:24:23.213Z,98055.91
2022-11-15T23:26:53.415Z,98050.06
2022-11-15T23:29:23.723Z,98052.75
2022-11-15T23:32:10.527Z,98052.16
2022-11-15T23:34:43.411Z,98057.72
2022-11-15T23:37:13.813Z,98043.41
2022-11-15T23:39:40.765Z,98051.25
2022-11-15T23:42:09.592Z,98051.91
2022-11-15T23:44:37.204Z,98044.63
2022-11-15T23:47:04.096Z,98040.84
2022-11-15T23:49:30.923Z,98041.25
2022-11-15T23:51:57.782Z,98038.16
2022-11-15T23:54:24.954Z,98054.53
2022-11-15T23:56:51.786Z,98052.44
2022-11-15T23:59:18.735Z,98057.44
